PWSweather.com
Personal Weather Stations
Station Observations
KIDNAMPA57
Canyon County Idaho, Nampa, ID 83687

Canyon County IdahoNampa, ID 83687

Lat: 43.587235, Lon: -116.49831979999999

Elevation: 2615

Station Type: Davis Vantage Pro 2

www.rockinglweather.com

High Low Average
Temperature 46.4°F8.0°C 35.2°F1.8°C 40.1°F4.5°C
Dew Point 41.7°F5.4°C 28.5°F-1.9°C 35.4°F1.9°C
Winds 16.0 mph 25.7 kmh Calm Calm 3.0 mph SE4.8 kmh SE
Wind Gusts 29.0 mph46.7 kmh -- 7.0 mph11.3 kmh
Humidity 92% 72% 83%
Pressure 30.14 in1020.7 mb 29.83 in1010.2 mb -
Precipitation 0.00 in0.0 mm - -
Hour Temp Dew Point Humidity Winds Wind Gusts Pressure Precip Precip Rate Daily Precip Total
12:00 AM 35.8°F2.1°C 29.0°F-1.7°C 76% Calm Calm 2.0 mph3.2 kmh 30.11 in1019.6 mb 0.00 in0.0 mm 0.00 in0.0 mm 0.00 in0.0 mm
12:05 AM 35.3°F1.8°C 28.8°F-1.8°C 77% Calm Calm -- 30.11 in1019.6 mb 0.00 in0.0 mm 0.00 in0.0 mm 0.00 in0.0 mm
12:10 AM 35.2°F1.8°C 29.0°F-1.7°C 78% Calm Calm -- 30.11 in1019.6 mb 0.00 in0.0 mm 0.00 in0.0 mm 0.00 in0.0 mm
12:15 AM 35.2°F1.8°C 29.0°F-1.7°C 78% Calm Calm 1.0 mph1.6 kmh 30.11 in1019.6 mb 0.00 in0.0 mm 0.00 in0.0 mm 0.00 in0.0 mm
12:20 AM 35.3°F1.8°C 29.1°F-1.6°C 78% Calm Calm -- 30.12 in1020.0 mb 0.00 in0.0 mm 0.00 in0.0 mm 0.00 in0.0 mm
12:25 AM 35.2°F1.8°C 29.0°F-1.7°C 78% 1.0 mph SE1.6 kmh SE 1.0 mph1.6 kmh 30.11 in1019.6 mb 0.00 in0.0 mm 0.00 in0.0 mm 0.00 in0.0 mm
12:30 AM 35.3°F1.8°C 29.1°F-1.6°C 78% Calm Calm 1.0 mph1.6 kmh 30.12 in1020.0 mb 0.00 in0.0 mm 0.00 in0.0 mm 0.00 in0.0 mm
12:35 AM 35.4°F1.9°C 29.2°F-1.6°C 78% Calm Calm -- 30.11 in1019.6 mb 0.00 in0.0 mm 0.00 in0.0 mm 0.00 in0.0 mm
12:40 AM 35.2°F1.8°C 29.4°F-1.4°C 79% Calm Calm 1.0 mph1.6 kmh 30.11 in1019.6 mb 0.00 in0.0 mm 0.00 in0.0 mm 0.00 in0.0 mm
12:45 AM 35.4°F1.9°C 29.6°F-1.3°C 79% 1.0 mph SE1.6 kmh SE 2.0 mph3.2 kmh 30.11 in1019.6 mb 0.00 in0.0 mm 0.00 in0.0 mm 0.00 in0.0 mm
12:50 AM 35.6°F2.0°C 29.4°F-1.4°C 78% Calm Calm 2.0 mph3.2 kmh 30.11 in1019.6 mb 0.00 in0.0 mm 0.00 in0.0 mm 0.00 in0.0 mm
12:55 AM 36.1°F2.3°C 29.6°F-1.3°C 77% Calm Calm 2.0 mph3.2 kmh 30.11 in1019.6 mb 0.00 in0.0 mm 0.00 in0.0 mm 0.00 in0.0 mm
01:00 AM 36.1°F2.3°C 29.6°F-1.3°C 77% Calm Calm 2.0 mph3.2 kmh 30.11 in1019.6 mb 0.00 in0.0 mm 0.00 in0.0 mm 0.00 in0.0 mm
01:05 AM 36.3°F2.4°C 29.5°F-1.4°C 76% Calm Calm 1.0 mph1.6 kmh 30.11 in1019.6 mb 0.00 in0.0 mm 0.00 in0.0 mm 0.00 in0.0 mm
01:10 AM 36.0°F2.2°C 29.5°F-1.4°C 77% Calm Calm 1.0 mph1.6 kmh 30.12 in1020.0 mb 0.00 in0.0 mm 0.00 in0.0 mm 0.00 in0.0 mm
01:15 AM 35.9°F2.2°C 29.4°F-1.4°C 77% 1.0 mph ESE1.6 kmh ESE 1.0 mph1.6 kmh 30.12 in1020.0 mb 0.00 in0.0 mm 0.00 in0.0 mm 0.00 in0.0 mm
01:20 AM 36.1°F2.3°C 29.3°F-1.5°C 76% Calm Calm 1.0 mph1.6 kmh 30.12 in1020.0 mb 0.00 in0.0 mm 0.00 in0.0 mm 0.00 in0.0 mm
01:25 AM 36.0°F2.2°C 29.2°F-1.6°C 76% 1.0 mph ESE1.6 kmh ESE 1.0 mph1.6 kmh 30.12 in1020.0 mb 0.00 in0.0 mm 0.00 in0.0 mm 0.00 in0.0 mm
01:30 AM 36.5°F2.5°C 29.0°F-1.7°C 74% Calm Calm 2.0 mph3.2 kmh 30.13 in1020.3 mb 0.00 in0.0 mm 0.00 in0.0 mm 0.00 in0.0 mm
01:35 AM 36.7°F2.6°C 28.9°F-1.7°C 73% Calm Calm 2.0 mph3.2 kmh 30.12 in1020.0 mb 0.00 in0.0 mm 0.00 in0.0 mm 0.00 in0.0 mm
01:40 AM 36.7°F2.6°C 28.5°F-1.9°C 72% Calm Calm 2.0 mph3.2 kmh 30.12 in1020.0 mb 0.00 in0.0 mm 0.00 in0.0 mm 0.00 in0.0 mm
01:45 AM 36.7°F2.6°C 28.5°F-1.9°C 72% 1.0 mph SE1.6 kmh SE 3.0 mph4.8 kmh 30.11 in1019.6 mb 0.00 in0.0 mm 0.00 in0.0 mm 0.00 in0.0 mm
01:50 AM 36.6°F2.6°C 28.8°F-1.8°C 73% 1.0 mph SE1.6 kmh SE 2.0 mph3.2 kmh 30.11 in1019.6 mb 0.00 in0.0 mm 0.00 in0.0 mm 0.00 in0.0 mm
01:55 AM 36.7°F2.6°C 28.9°F-1.7°C 73% 1.0 mph SE1.6 kmh SE 2.0 mph3.2 kmh 30.11 in1019.6 mb 0.00 in0.0 mm 0.00 in0.0 mm 0.00 in0.0 mm
02:00 AM 36.8°F2.7°C 29.0°F-1.7°C 73% Calm Calm 5.0 mph8.0 kmh 30.11 in1019.6 mb 0.00 in0.0 mm 0.00 in0.0 mm 0.00 in0.0 mm
02:05 AM 36.8°F2.7°C 29.0°F-1.7°C 73% Calm Calm 3.0 mph4.8 kmh 30.11 in1019.6 mb 0.00 in0.0 mm 0.00 in0.0 mm 0.00 in0.0 mm
02:10 AM 36.7°F2.6°C 28.9°F-1.7°C 73% Calm Calm 3.0 mph4.8 kmh 30.11 in1019.6 mb 0.00 in0.0 mm 0.00 in0.0 mm 0.00 in0.0 mm
02:15 AM 36.5°F2.5°C 29.0°F-1.7°C 74% 1.0 mph SE1.6 kmh SE 3.0 mph4.8 kmh 30.12 in1020.0 mb 0.00 in0.0 mm 0.00 in0.0 mm 0.00 in0.0 mm
02:20 AM 36.3°F2.4°C 29.2°F-1.6°C 75% 2.0 mph SE3.2 kmh SE 2.0 mph3.2 kmh 30.12 in1020.0 mb 0.00 in0.0 mm 0.00 in0.0 mm 0.00 in0.0 mm
02:25 AM 36.2°F2.3°C 29.4°F-1.4°C 76% 3.0 mph SE4.8 kmh SE 3.0 mph4.8 kmh 30.11 in1019.6 mb 0.00 in0.0 mm 0.00 in0.0 mm 0.00 in0.0 mm
02:30 AM 36.2°F2.3°C 29.4°F-1.4°C 76% 3.0 mph SE4.8 kmh SE 4.0 mph6.4 kmh 30.11 in1019.6 mb 0.00 in0.0 mm 0.00 in0.0 mm 0.00 in0.0 mm
02:35 AM 36.4°F2.4°C 29.6°F-1.3°C 76% 2.0 mph SE3.2 kmh SE 5.0 mph8.0 kmh 30.12 in1020.0 mb 0.00 in0.0 mm 0.00 in0.0 mm 0.00 in0.0 mm
02:40 AM 36.6°F2.6°C 29.4°F-1.4°C 75% 1.0 mph SE1.6 kmh SE 5.0 mph8.0 kmh 30.12 in1020.0 mb 0.00 in0.0 mm 0.00 in0.0 mm 0.00 in0.0 mm
02:45 AM 36.6°F2.6°C 29.4°F-1.4°C 75% Calm Calm 5.0 mph8.0 kmh 30.12 in1020.0 mb 0.00 in0.0 mm 0.00 in0.0 mm 0.00 in0.0 mm
02:50 AM 36.5°F2.5°C 29.7°F-1.3°C 76% 1.0 mph SSE1.6 kmh SSE 3.0 mph4.8 kmh 30.12 in1020.0 mb 0.00 in0.0 mm 0.00 in0.0 mm 0.00 in0.0 mm
02:55 AM 36.5°F2.5°C 29.7°F-1.3°C 76% Calm Calm 3.0 mph4.8 kmh 30.13 in1020.3 mb 0.00 in0.0 mm 0.00 in0.0 mm 0.00 in0.0 mm
03:00 AM 36.3°F2.4°C 29.8°F-1.2°C 77% 1.0 mph SE1.6 kmh SE 3.0 mph4.8 kmh 30.13 in1020.3 mb 0.00 in0.0 mm 0.00 in0.0 mm 0.00 in0.0 mm
03:05 AM 36.2°F2.3°C 30.0°F-1.1°C 78% Calm Calm 3.0 mph4.8 kmh 30.14 in1020.7 mb 0.00 in0.0 mm 0.00 in0.0 mm 0.00 in0.0 mm
03:10 AM 36.1°F2.3°C 29.9°F-1.2°C 78% Calm Calm 3.0 mph4.8 kmh 30.14 in1020.7 mb 0.00 in0.0 mm 0.00 in0.0 mm 0.00 in0.0 mm
03:15 AM 36.0°F2.2°C 30.1°F-1.1°C 79% Calm Calm 3.0 mph4.8 kmh 30.14 in1020.7 mb 0.00 in0.0 mm 0.00 in0.0 mm 0.00 in0.0 mm
03:20 AM 35.9°F2.2°C 30.3°F-0.9°C 80% 5.0 mph SE8.0 kmh SE 5.0 mph8.0 kmh 30.14 in1020.7 mb 0.00 in0.0 mm 0.00 in0.0 mm 0.00 in0.0 mm
03:25 AM 35.8°F2.1°C 30.6°F-0.8°C 81% 3.0 mph SE4.8 kmh SE 5.0 mph8.0 kmh 30.13 in1020.3 mb 0.00 in0.0 mm 0.00 in0.0 mm 0.00 in0.0 mm
03:30 AM 35.8°F2.1°C 30.9°F-0.6°C 82% 2.0 mph SE3.2 kmh SE 5.0 mph8.0 kmh 30.13 in1020.3 mb 0.00 in0.0 mm 0.00 in0.0 mm 0.00 in0.0 mm
03:35 AM 36.0°F2.2°C 30.8°F-0.7°C 81% 1.0 mph ESE1.6 kmh ESE 3.0 mph4.8 kmh 30.13 in1020.3 mb 0.00 in0.0 mm 0.00 in0.0 mm 0.00 in0.0 mm
03:40 AM 36.1°F2.3°C 30.8°F-0.7°C 81% 1.0 mph SE1.6 kmh SE 3.0 mph4.8 kmh 30.13 in1020.3 mb 0.00 in0.0 mm 0.00 in0.0 mm 0.00 in0.0 mm
03:45 AM 36.3°F2.4°C 30.7°F-0.7°C 80% 1.0 mph ESE1.6 kmh ESE 4.0 mph6.4 kmh 30.14 in1020.7 mb 0.00 in0.0 mm 0.00 in0.0 mm 0.00 in0.0 mm
03:50 AM 36.6°F2.6°C 30.7°F-0.7°C 79% Calm Calm 6.0 mph9.7 kmh 30.14 in1020.7 mb 0.01 in0.3 mm 0.12 in3.0 mm 0.01 in0.3 mm
03:55 AM 36.6°F2.6°C 30.7°F-0.7°C 79% Calm Calm 6.0 mph9.7 kmh 30.14 in1020.7 mb 0.01 in0.3 mm 0.00 in0.0 mm 0.01 in0.3 mm
04:00 AM 36.2°F2.3°C 30.9°F-0.6°C 81% Calm Calm 6.0 mph9.7 kmh 30.14 in1020.7 mb 0.01 in0.3 mm 0.00 in0.0 mm 0.01 in0.3 mm
04:05 AM 35.7°F2.1°C 31.1°F-0.5°C 83% 3.0 mph ESE4.8 kmh ESE 3.0 mph4.8 kmh 30.13 in1020.3 mb 0.01 in0.3 mm 0.00 in0.0 mm 0.01 in0.3 mm
04:10 AM 35.4°F1.9°C 31.1°F-0.5°C 84% Calm Calm 3.0 mph4.8 kmh 30.13 in1020.3 mb 0.01 in0.3 mm 0.00 in0.0 mm 0.01 in0.3 mm
04:15 AM 35.3°F1.8°C 31.3°F-0.4°C 85% 2.0 mph ESE3.2 kmh ESE 3.0 mph4.8 kmh 30.14 in1020.7 mb 0.01 in0.3 mm 0.00 in0.0 mm 0.01 in0.3 mm
04:20 AM 35.3°F1.8°C 31.5°F-0.3°C 86% 1.0 mph E1.6 kmh E 5.0 mph8.0 kmh 30.13 in1020.3 mb 0.02 in0.5 mm 0.12 in3.0 mm 0.02 in0.5 mm
04:25 AM 35.3°F1.8°C 31.3°F-0.4°C 85% 2.0 mph E3.2 kmh E 5.0 mph8.0 kmh 30.14 in1020.7 mb 0.02 in0.5 mm 0.00 in0.0 mm 0.02 in0.5 mm
04:30 AM 35.4°F1.9°C 31.1°F-0.5°C 84% 1.0 mph ESE1.6 kmh ESE 5.0 mph8.0 kmh 30.14 in1020.7 mb 0.02 in0.5 mm 0.00 in0.0 mm 0.02 in0.5 mm
04:35 AM 35.5°F1.9°C 31.5°F-0.3°C 85% 1.0 mph E1.6 kmh E 3.0 mph4.8 kmh 30.14 in1020.7 mb 0.02 in0.5 mm 0.00 in0.0 mm 0.02 in0.5 mm
04:40 AM 35.7°F2.1°C 31.6°F-0.2°C 85% 2.0 mph ESE3.2 kmh ESE 5.0 mph8.0 kmh 30.14 in1020.7 mb 0.02 in0.5 mm 0.00 in0.0 mm 0.02 in0.5 mm
04:45 AM 35.8°F2.1°C 31.5°F-0.3°C 84% 1.0 mph E1.6 kmh E 5.0 mph8.0 kmh 30.13 in1020.3 mb 0.02 in0.5 mm 0.00 in0.0 mm 0.02 in0.5 mm
04:50 AM 35.9°F2.2°C 31.6°F-0.2°C 84% Calm Calm 5.0 mph8.0 kmh 30.13 in1020.3 mb 0.02 in0.5 mm 0.00 in0.0 mm 0.02 in0.5 mm
04:55 AM 36.0°F2.2°C 31.6°F-0.2°C 84% 3.0 mph ESE4.8 kmh ESE 5.0 mph8.0 kmh 30.13 in1020.3 mb 0.02 in0.5 mm 0.00 in0.0 mm 0.02 in0.5 mm
05:00 AM 36.1°F2.3°C 31.5°F-0.3°C 83% 2.0 mph E3.2 kmh E 6.0 mph9.7 kmh 30.12 in1020.0 mb 0.02 in0.5 mm 0.00 in0.0 mm 0.02 in0.5 mm
05:05 AM 36.3°F2.4°C 31.6°F-0.2°C 83% 1.0 mph E1.6 kmh E 6.0 mph9.7 kmh 30.12 in1020.0 mb 0.01 in0.3 mm 0.00 in0.0 mm 0.02 in0.5 mm
05:10 AM 36.6°F2.6°C 31.9°F-0.1°C 83% 4.0 mph E6.4 kmh E 6.0 mph9.7 kmh 30.12 in1020.0 mb 0.01 in0.3 mm 0.00 in0.0 mm 0.02 in0.5 mm
05:15 AM 36.8°F2.7°C 31.8°F-0.1°C 82% 2.0 mph E3.2 kmh E 9.0 mph14.5 kmh 30.12 in1020.0 mb 0.01 in0.3 mm 0.00 in0.0 mm 0.02 in0.5 mm
05:20 AM 36.9°F2.7°C 31.9°F-0.1°C 82% 1.0 mph E1.6 kmh E 4.0 mph6.4 kmh 30.12 in1020.0 mb 0.01 in0.3 mm 0.00 in0.0 mm 0.02 in0.5 mm
05:25 AM 36.8°F2.7°C 31.8°F-0.1°C 82% 3.0 mph E4.8 kmh E 5.0 mph8.0 kmh 30.12 in1020.0 mb 0.01 in0.3 mm 0.00 in0.0 mm 0.02 in0.5 mm
05:30 AM 36.7°F2.6°C 31.7°F-0.2°C 82% 3.0 mph E4.8 kmh E 7.0 mph11.3 kmh 30.11 in1019.6 mb 0.01 in0.3 mm 0.00 in0.0 mm 0.02 in0.5 mm
05:35 AM 36.7°F2.6°C 31.7°F-0.2°C 82% 4.0 mph E6.4 kmh E 7.0 mph11.3 kmh 30.11 in1019.6 mb 0.00 in0.0 mm 0.00 in0.0 mm 0.02 in0.5 mm
05:40 AM 36.8°F2.7°C 31.8°F-0.1°C 82% 3.0 mph SE4.8 kmh SE 7.0 mph11.3 kmh 30.11 in1019.6 mb 0.00 in0.0 mm 0.00 in0.0 mm 0.02 in0.5 mm
05:45 AM 36.9°F2.7°C 31.9°F-0.1°C 82% 2.0 mph SE3.2 kmh SE 7.0 mph11.3 kmh 30.11 in1019.6 mb 0.00 in0.0 mm 0.00 in0.0 mm 0.02 in0.5 mm
05:50 AM 36.9°F2.7°C 31.9°F-0.1°C 82% 3.0 mph E4.8 kmh E 8.0 mph12.9 kmh 30.11 in1019.6 mb 0.00 in0.0 mm 0.00 in0.0 mm 0.02 in0.5 mm
05:55 AM 36.9°F2.7°C 31.9°F-0.1°C 82% 2.0 mph E3.2 kmh E 8.0 mph12.9 kmh 30.11 in1019.6 mb 0.00 in0.0 mm 0.00 in0.0 mm 0.02 in0.5 mm
06:05 AM 36.8°F2.7°C 32.1°F0.1°C 83% Calm Calm 5.0 mph8.0 kmh 30.11 in1019.6 mb 0.00 in0.0 mm 0.00 in0.0 mm 0.02 in0.5 mm
06:10 AM 36.8°F2.7°C 32.1°F0.1°C 83% 3.0 mph ESE4.8 kmh ESE 5.0 mph8.0 kmh 30.11 in1019.6 mb 0.00 in0.0 mm 0.00 in0.0 mm 0.02 in0.5 mm
06:15 AM 36.8°F2.7°C 32.1°F0.1°C 83% 1.0 mph ESE1.6 kmh ESE 5.0 mph8.0 kmh 30.11 in1019.6 mb 0.00 in0.0 mm 0.00 in0.0 mm 0.02 in0.5 mm
06:20 AM 36.9°F2.7°C 32.2°F0.1°C 83% Calm Calm 4.0 mph6.4 kmh 30.11 in1019.6 mb 0.00 in0.0 mm 0.00 in0.0 mm 0.02 in0.5 mm
06:25 AM 36.9°F2.7°C 32.2°F0.1°C 83% Calm Calm 4.0 mph6.4 kmh 30.11 in1019.6 mb 0.00 in0.0 mm 0.00 in0.0 mm 0.02 in0.5 mm
06:30 AM 36.9°F2.7°C 32.2°F0.1°C 83% Calm Calm 4.0 mph6.4 kmh 30.11 in1019.6 mb 0.00 in0.0 mm 0.00 in0.0 mm 0.02 in0.5 mm
06:35 AM 36.8°F2.7°C 32.1°F0.1°C 83% 1.0 mph ESE1.6 kmh ESE 5.0 mph8.0 kmh 30.12 in1020.0 mb 0.00 in0.0 mm 0.00 in0.0 mm 0.02 in0.5 mm
06:40 AM 36.8°F2.7°C 32.1°F0.1°C 83% Calm Calm 5.0 mph8.0 kmh 30.12 in1020.0 mb 0.00 in0.0 mm 0.00 in0.0 mm 0.02 in0.5 mm
06:45 AM 36.8°F2.7°C 32.1°F0.1°C 83% Calm Calm 5.0 mph8.0 kmh 30.12 in1020.0 mb 0.00 in0.0 mm 0.00 in0.0 mm 0.02 in0.5 mm
06:50 AM 36.7°F2.6°C 32.0°F0.0°C 83% Calm Calm 3.0 mph4.8 kmh 30.12 in1020.0 mb 0.00 in0.0 mm 0.00 in0.0 mm 0.02 in0.5 mm
06:55 AM 36.7°F2.6°C 32.0°F0.0°C 83% 1.0 mph SE1.6 kmh SE 3.0 mph4.8 kmh 30.12 in1020.0 mb 0.00 in0.0 mm 0.00 in0.0 mm 0.02 in0.5 mm
07:00 AM 36.5°F2.5°C 32.1°F0.1°C 84% 1.0 mph S1.6 kmh S 4.0 mph6.4 kmh 30.12 in1020.0 mb 0.00 in0.0 mm 0.00 in0.0 mm 0.02 in0.5 mm
07:05 AM 36.4°F2.4°C 32.0°F0.0°C 84% 1.0 mph S1.6 kmh S 3.0 mph4.8 kmh 30.13 in1020.3 mb 0.00 in0.0 mm 0.00 in0.0 mm 0.02 in0.5 mm
07:10 AM 36.2°F2.3°C 31.8°F-0.1°C 84% Calm Calm 3.0 mph4.8 kmh 30.13 in1020.3 mb 0.00 in0.0 mm 0.00 in0.0 mm 0.02 in0.5 mm
07:15 AM 36.1°F2.3°C 32.0°F0.0°C 85% Calm Calm 3.0 mph4.8 kmh 30.13 in1020.3 mb 0.00 in0.0 mm 0.00 in0.0 mm 0.02 in0.5 mm
07:20 AM 36.0°F2.2°C 31.9°F-0.1°C 85% 2.0 mph S3.2 kmh S 3.0 mph4.8 kmh 30.12 in1020.0 mb 0.00 in0.0 mm 0.00 in0.0 mm 0.02 in0.5 mm
07:25 AM 35.8°F2.1°C 31.7°F-0.2°C 85% Calm Calm 3.0 mph4.8 kmh 30.12 in1020.0 mb 0.00 in0.0 mm 0.00 in0.0 mm 0.02 in0.5 mm
07:30 AM 35.7°F2.1°C 31.6°F-0.2°C 85% 2.0 mph SSE3.2 kmh SSE 5.0 mph8.0 kmh 30.12 in1020.0 mb 0.00 in0.0 mm 0.00 in0.0 mm 0.02 in0.5 mm
07:35 AM 35.7°F2.1°C 31.9°F-0.1°C 86% Calm Calm 4.0 mph6.4 kmh 30.13 in1020.3 mb 0.00 in0.0 mm 0.00 in0.0 mm 0.02 in0.5 mm
07:40 AM 35.7°F2.1°C 31.9°F-0.1°C 86% Calm Calm 5.0 mph8.0 kmh 30.12 in1020.0 mb 0.00 in0.0 mm 0.00 in0.0 mm 0.02 in0.5 mm
07:45 AM 35.7°F2.1°C 31.9°F-0.1°C 86% 1.0 mph ESE1.6 kmh ESE 6.0 mph9.7 kmh 30.12 in1020.0 mb 0.01 in0.3 mm 0.12 in3.0 mm 0.03 in0.8 mm
07:50 AM 35.7°F2.1°C 32.2°F0.1°C 87% 2.0 mph SE3.2 kmh SE 6.0 mph9.7 kmh 30.12 in1020.0 mb 0.01 in0.3 mm 0.00 in0.0 mm 0.03 in0.8 mm
07:55 AM 35.7°F2.1°C 32.2°F0.1°C 87% 1.0 mph E1.6 kmh E 8.0 mph12.9 kmh 30.11 in1019.6 mb 0.01 in0.3 mm 0.00 in0.0 mm 0.03 in0.8 mm
08:00 AM 35.7°F2.1°C 32.2°F0.1°C 87% 1.0 mph ESE1.6 kmh ESE 8.0 mph12.9 kmh 30.11 in1019.6 mb 0.01 in0.3 mm 0.00 in0.0 mm 0.03 in0.8 mm
08:05 AM 35.7°F2.1°C 32.2°F0.1°C 87% Calm Calm 3.0 mph4.8 kmh 30.11 in1019.6 mb 0.01 in0.3 mm 0.00 in0.0 mm 0.03 in0.8 mm
08:10 AM 35.7°F2.1°C 32.5°F0.3°C 88% Calm Calm 3.0 mph4.8 kmh 30.11 in1019.6 mb 0.01 in0.3 mm 0.00 in0.0 mm 0.03 in0.8 mm
08:15 AM 35.6°F2.0°C 32.4°F0.2°C 88% 2.0 mph E3.2 kmh E 3.0 mph4.8 kmh 30.11 in1019.6 mb 0.01 in0.3 mm 0.00 in0.0 mm 0.03 in0.8 mm
08:20 AM 35.7°F2.1°C 32.5°F0.3°C 88% Calm Calm 4.0 mph6.4 kmh 30.11 in1019.6 mb 0.01 in0.3 mm 0.00 in0.0 mm 0.03 in0.8 mm
08:25 AM 35.7°F2.1°C 32.5°F0.3°C 88% 1.0 mph SE1.6 kmh SE 4.0 mph6.4 kmh 30.12 in1020.0 mb 0.01 in0.3 mm 0.00 in0.0 mm 0.03 in0.8 mm
08:30 AM 35.7°F2.1°C 32.8°F0.4°C 89% 3.0 mph SE4.8 kmh SE 4.0 mph6.4 kmh 30.12 in1020.0 mb 0.01 in0.3 mm 0.00 in0.0 mm 0.03 in0.8 mm
08:35 AM 35.8°F2.1°C 32.9°F0.5°C 89% Calm Calm 3.0 mph4.8 kmh 30.12 in1020.0 mb 0.01 in0.3 mm 0.00 in0.0 mm 0.03 in0.8 mm
08:40 AM 35.9°F2.2°C 33.0°F0.6°C 89% 2.0 mph E3.2 kmh E 4.0 mph6.4 kmh 30.11 in1019.6 mb 0.01 in0.3 mm 0.00 in0.0 mm 0.03 in0.8 mm
08:45 AM 36.0°F2.2°C 33.1°F0.6°C 89% 1.0 mph E1.6 kmh E 4.0 mph6.4 kmh 30.12 in1020.0 mb 0.02 in0.5 mm 0.12 in3.0 mm 0.04 in1.0 mm
08:50 AM 36.3°F2.4°C 33.7°F0.9°C 90% 2.0 mph SE3.2 kmh SE 5.0 mph8.0 kmh 30.13 in1020.3 mb 0.01 in0.3 mm 0.00 in0.0 mm 0.04 in1.0 mm
08:55 AM 36.5°F2.5°C 33.9°F1.1°C 90% 1.0 mph SE1.6 kmh SE 5.0 mph8.0 kmh 30.13 in1020.3 mb 0.01 in0.3 mm 0.00 in0.0 mm 0.04 in1.0 mm
09:00 AM 36.6°F2.6°C 34.0°F1.1°C 90% 1.0 mph SE1.6 kmh SE 5.0 mph8.0 kmh 30.12 in1020.0 mb 0.01 in0.3 mm 0.00 in0.0 mm 0.04 in1.0 mm
09:05 AM 36.7°F2.6°C 34.1°F1.2°C 90% 2.0 mph ESE3.2 kmh ESE 6.0 mph9.7 kmh 30.12 in1020.0 mb 0.02 in0.5 mm 0.12 in3.0 mm 0.05 in1.3 mm
09:10 AM 36.8°F2.7°C 34.2°F1.2°C 90% 1.0 mph ESE1.6 kmh ESE 7.0 mph11.3 kmh 30.12 in1020.0 mb 0.02 in0.5 mm 0.00 in0.0 mm 0.05 in1.3 mm
09:15 AM 36.9°F2.7°C 34.3°F1.3°C 90% 2.0 mph SE3.2 kmh SE 7.0 mph11.3 kmh 30.12 in1020.0 mb 0.02 in0.5 mm 0.00 in0.0 mm 0.05 in1.3 mm
09:20 AM 36.9°F2.7°C 34.3°F1.3°C 90% 1.0 mph E1.6 kmh E 5.0 mph8.0 kmh 30.13 in1020.3 mb 0.02 in0.5 mm 0.00 in0.0 mm 0.05 in1.3 mm
09:25 AM 37.0°F2.8°C 34.4°F1.3°C 90% 3.0 mph SE4.8 kmh SE 5.0 mph8.0 kmh 30.13 in1020.3 mb 0.02 in0.5 mm 0.00 in0.0 mm 0.05 in1.3 mm
09:30 AM 37.0°F2.8°C 34.4°F1.3°C 90% Calm Calm 5.0 mph8.0 kmh 30.13 in1020.3 mb 0.02 in0.5 mm 0.00 in0.0 mm 0.05 in1.3 mm
09:35 AM 37.0°F2.8°C 34.4°F1.3°C 90% Calm Calm 2.0 mph3.2 kmh 30.13 in1020.3 mb 0.02 in0.5 mm 0.00 in0.0 mm 0.05 in1.3 mm
09:40 AM 36.9°F2.7°C 34.3°F1.3°C 90% 2.0 mph SE3.2 kmh SE 3.0 mph4.8 kmh 30.13 in1020.3 mb 0.03 in0.8 mm 0.12 in3.0 mm 0.06 in1.5 mm
09:45 AM 36.8°F2.7°C 34.2°F1.2°C 90% Calm Calm 3.0 mph4.8 kmh 30.13 in1020.3 mb 0.03 in0.8 mm 0.00 in0.0 mm 0.06 in1.5 mm
09:50 AM 36.7°F2.6°C 34.3°F1.3°C 91% 1.0 mph SE1.6 kmh SE 3.0 mph4.8 kmh 30.13 in1020.3 mb 0.02 in0.5 mm 0.00 in0.0 mm 0.06 in1.5 mm
09:55 AM 36.7°F2.6°C 34.3°F1.3°C 91% Calm Calm 4.0 mph6.4 kmh 30.13 in1020.3 mb 0.02 in0.5 mm 0.00 in0.0 mm 0.06 in1.5 mm
10:00 AM 36.8°F2.7°C 34.4°F1.3°C 91% Calm Calm 4.0 mph6.4 kmh 30.14 in1020.7 mb 0.02 in0.5 mm 0.00 in0.0 mm 0.06 in1.5 mm
10:05 AM 36.8°F2.7°C 34.4°F1.3°C 91% Calm Calm 5.0 mph8.0 kmh 30.13 in1020.3 mb 0.03 in0.8 mm 0.12 in3.0 mm 0.07 in1.8 mm
10:10 AM 36.9°F2.7°C 34.5°F1.4°C 91% 1.0 mph S1.6 kmh S 5.0 mph8.0 kmh 30.13 in1020.3 mb 0.03 in0.8 mm 0.00 in0.0 mm 0.07 in1.8 mm
10:15 AM 36.9°F2.7°C 34.5°F1.4°C 91% 3.0 mph SE4.8 kmh SE 5.0 mph8.0 kmh 30.12 in1020.0 mb 0.03 in0.8 mm 0.00 in0.0 mm 0.07 in1.8 mm
10:20 AM 36.8°F2.7°C 34.4°F1.3°C 91% 4.0 mph SE6.4 kmh SE 4.0 mph6.4 kmh 30.12 in1020.0 mb 0.02 in0.5 mm 0.00 in0.0 mm 0.07 in1.8 mm
10:25 AM 36.9°F2.7°C 34.5°F1.4°C 91% 4.0 mph SE6.4 kmh SE 5.0 mph8.0 kmh 30.11 in1019.6 mb 0.02 in0.5 mm 0.00 in0.0 mm 0.07 in1.8 mm
10:30 AM 36.9°F2.7°C 34.8°F1.6°C 92% Calm Calm 5.0 mph8.0 kmh 30.11 in1019.6 mb 0.02 in0.5 mm 0.00 in0.0 mm 0.07 in1.8 mm
10:40 AM 37.2°F2.9°C 35.1°F1.7°C 92% Calm Calm 4.0 mph6.4 kmh 30.12 in1020.0 mb 0.02 in0.5 mm 0.00 in0.0 mm 0.07 in1.8 mm
10:45 AM 37.5°F3.1°C 35.4°F1.9°C 92% 3.0 mph SSE4.8 kmh SSE 4.0 mph6.4 kmh 30.12 in1020.0 mb 0.02 in0.5 mm 0.00 in0.0 mm 0.07 in1.8 mm
10:50 AM 37.6°F3.1°C 35.5°F1.9°C 92% 2.0 mph SE3.2 kmh SE 7.0 mph11.3 kmh 30.12 in1020.0 mb 0.01 in0.3 mm 0.00 in0.0 mm 0.07 in1.8 mm
10:55 AM 37.8°F3.2°C 35.7°F2.1°C 92% 2.0 mph SE3.2 kmh SE 7.0 mph11.3 kmh 30.11 in1019.6 mb 0.01 in0.3 mm 0.00 in0.0 mm 0.07 in1.8 mm
11:00 AM 37.9°F3.3°C 35.8°F2.1°C 92% 2.0 mph SSE3.2 kmh SSE 7.0 mph11.3 kmh 30.12 in1020.0 mb 0.01 in0.3 mm 0.00 in0.0 mm 0.07 in1.8 mm
11:05 AM 38.0°F3.3°C 35.9°F2.2°C 92% 1.0 mph S1.6 kmh S 7.0 mph11.3 kmh 30.11 in1019.6 mb 0.01 in0.3 mm 0.00 in0.0 mm 0.07 in1.8 mm
11:10 AM 38.2°F3.4°C 36.1°F2.3°C 92% 3.0 mph SSE4.8 kmh SSE 8.0 mph12.9 kmh 30.11 in1019.6 mb 0.01 in0.3 mm 0.00 in0.0 mm 0.07 in1.8 mm
11:15 AM 38.4°F3.6°C 36.3°F2.4°C 92% 1.0 mph SSE1.6 kmh SSE 8.0 mph12.9 kmh 30.11 in1019.6 mb 0.01 in0.3 mm 0.00 in0.0 mm 0.07 in1.8 mm
11:20 AM 38.5°F3.6°C 36.4°F2.4°C 92% 1.0 mph SE1.6 kmh SE 7.0 mph11.3 kmh 30.11 in1019.6 mb 0.00 in0.0 mm 0.00 in0.0 mm 0.07 in1.8 mm
11:25 AM 38.6°F3.7°C 36.5°F2.5°C 92% 2.0 mph SE3.2 kmh SE 7.0 mph11.3 kmh 30.11 in1019.6 mb 0.00 in0.0 mm 0.00 in0.0 mm 0.07 in1.8 mm
11:30 AM 38.7°F3.7°C 36.6°F2.6°C 92% 1.0 mph SSE1.6 kmh SSE 8.0 mph12.9 kmh 30.11 in1019.6 mb 0.00 in0.0 mm 0.00 in0.0 mm 0.07 in1.8 mm
11:35 AM 38.8°F3.8°C 36.7°F2.6°C 92% 6.0 mph SE9.7 kmh SE 7.0 mph11.3 kmh 30.10 in1019.3 mb 0.00 in0.0 mm 0.00 in0.0 mm 0.07 in1.8 mm
11:40 AM 38.9°F3.8°C 36.8°F2.7°C 92% 2.0 mph ESE3.2 kmh ESE 7.0 mph11.3 kmh 30.10 in1019.3 mb 0.00 in0.0 mm 0.00 in0.0 mm 0.07 in1.8 mm
11:45 AM 38.9°F3.8°C 36.5°F2.5°C 91% 5.0 mph SE8.0 kmh SE 7.0 mph11.3 kmh 30.10 in1019.3 mb 0.00 in0.0 mm 0.00 in0.0 mm 0.07 in1.8 mm
11:50 AM 39.0°F3.9°C 36.6°F2.6°C 91% 2.0 mph S3.2 kmh S 8.0 mph12.9 kmh 30.10 in1019.3 mb 0.00 in0.0 mm 0.00 in0.0 mm 0.07 in1.8 mm
11:55 AM 39.0°F3.9°C 36.6°F2.6°C 91% 3.0 mph ESE4.8 kmh ESE 8.0 mph12.9 kmh 30.08 in1018.6 mb 0.00 in0.0 mm 0.00 in0.0 mm 0.07 in1.8 mm
12:00 PM 39.1°F3.9°C 37.0°F2.8°C 92% Calm Calm 8.0 mph12.9 kmh 30.08 in1018.6 mb 0.00 in0.0 mm 0.00 in0.0 mm 0.07 in1.8 mm
12:05 PM 39.3°F4.1°C 37.2°F2.9°C 92% 1.0 mph S1.6 kmh S 7.0 mph11.3 kmh 30.08 in1018.6 mb 0.00 in0.0 mm 0.00 in0.0 mm 0.07 in1.8 mm
12:10 PM 39.3°F4.1°C 36.9°F2.7°C 91% Calm Calm 9.0 mph14.5 kmh 30.07 in1018.3 mb 0.00 in0.0 mm 0.00 in0.0 mm 0.07 in1.8 mm
12:15 PM 39.4°F4.1°C 37.0°F2.8°C 91% 1.0 mph ESE1.6 kmh ESE 9.0 mph14.5 kmh 30.06 in1017.9 mb 0.00 in0.0 mm 0.00 in0.0 mm 0.07 in1.8 mm
12:20 PM 39.5°F4.2°C 37.1°F2.8°C 91% 9.0 mph SE14.5 kmh SE 9.0 mph14.5 kmh 30.07 in1018.3 mb 0.00 in0.0 mm 0.00 in0.0 mm 0.07 in1.8 mm
12:25 PM 39.7°F4.3°C 37.3°F2.9°C 91% 2.0 mph SSE3.2 kmh SSE 10.0 mph16.1 kmh 30.07 in1018.3 mb 0.00 in0.0 mm 0.00 in0.0 mm 0.07 in1.8 mm
12:30 PM 39.9°F4.4°C 37.5°F3.1°C 91% 5.0 mph SSE8.0 kmh SSE 11.0 mph17.7 kmh 30.07 in1018.3 mb 0.00 in0.0 mm 0.00 in0.0 mm 0.07 in1.8 mm
12:35 PM 40.1°F4.5°C 37.7°F3.2°C 91% 4.0 mph S6.4 kmh S 8.0 mph12.9 kmh 30.06 in1017.9 mb 0.00 in0.0 mm 0.00 in0.0 mm 0.07 in1.8 mm
12:40 PM 40.5°F4.7°C 37.8°F3.2°C 90% 2.0 mph S3.2 kmh S 8.0 mph12.9 kmh 30.07 in1018.3 mb 0.00 in0.0 mm 0.00 in0.0 mm 0.07 in1.8 mm
12:45 PM 40.6°F4.8°C 37.9°F3.3°C 90% 2.0 mph SE3.2 kmh SE 8.0 mph12.9 kmh 30.06 in1017.9 mb 0.00 in0.0 mm 0.00 in0.0 mm 0.07 in1.8 mm
12:50 PM 40.7°F4.8°C 37.7°F3.2°C 89% 1.0 mph SSE1.6 kmh SSE 7.0 mph11.3 kmh 30.05 in1017.6 mb 0.00 in0.0 mm 0.00 in0.0 mm 0.07 in1.8 mm
12:55 PM 40.7°F4.8°C 37.7°F3.2°C 89% 2.0 mph SE3.2 kmh SE 7.0 mph11.3 kmh 30.05 in1017.6 mb 0.00 in0.0 mm 0.00 in0.0 mm 0.07 in1.8 mm
01:00 PM 40.7°F4.8°C 37.7°F3.2°C 89% 1.0 mph SE1.6 kmh SE 7.0 mph11.3 kmh 30.04 in1017.3 mb 0.00 in0.0 mm 0.00 in0.0 mm 0.07 in1.8 mm
01:05 PM 40.7°F4.8°C 37.4°F3.0°C 88% 2.0 mph SSE3.2 kmh SSE 8.0 mph12.9 kmh 30.03 in1016.9 mb 0.00 in0.0 mm 0.00 in0.0 mm 0.07 in1.8 mm
01:10 PM 40.8°F4.9°C 37.5°F3.1°C 88% 8.0 mph SE12.9 kmh SE 9.0 mph14.5 kmh 30.02 in1016.6 mb 0.00 in0.0 mm 0.00 in0.0 mm 0.07 in1.8 mm
01:15 PM 40.8°F4.9°C 37.2°F2.9°C 87% 6.0 mph ESE9.7 kmh ESE 11.0 mph17.7 kmh 30.02 in1016.6 mb 0.00 in0.0 mm 0.00 in0.0 mm 0.07 in1.8 mm
01:20 PM 41.0°F5.0°C 37.4°F3.0°C 87% 2.0 mph ESE3.2 kmh ESE 11.0 mph17.7 kmh 30.01 in1016.3 mb 0.00 in0.0 mm 0.00 in0.0 mm 0.07 in1.8 mm
01:25 PM 41.1°F5.1°C 37.5°F3.1°C 87% 9.0 mph SE14.5 kmh SE 14.0 mph22.5 kmh 30.00 in1015.9 mb 0.00 in0.0 mm 0.00 in0.0 mm 0.07 in1.8 mm
01:30 PM 41.2°F5.1°C 37.6°F3.1°C 87% 3.0 mph SE4.8 kmh SE 14.0 mph22.5 kmh 30.00 in1015.9 mb 0.00 in0.0 mm 0.00 in0.0 mm 0.07 in1.8 mm
01:35 PM 41.4°F5.2°C 37.8°F3.2°C 87% 8.0 mph SE12.9 kmh SE 14.0 mph22.5 kmh 30.00 in1015.9 mb 0.00 in0.0 mm 0.00 in0.0 mm 0.07 in1.8 mm
01:40 PM 41.6°F5.3°C 38.0°F3.3°C 87% 5.0 mph ESE8.0 kmh ESE 14.0 mph22.5 kmh 29.99 in1015.6 mb 0.00 in0.0 mm 0.00 in0.0 mm 0.07 in1.8 mm
01:45 PM 42.0°F5.6°C 38.4°F3.6°C 87% 5.0 mph SE8.0 kmh SE 14.0 mph22.5 kmh 29.99 in1015.6 mb 0.00 in0.0 mm 0.00 in0.0 mm 0.07 in1.8 mm
01:50 PM 42.2°F5.7°C 38.6°F3.7°C 87% 4.0 mph E6.4 kmh E 13.0 mph20.9 kmh 29.98 in1015.2 mb 0.00 in0.0 mm 0.00 in0.0 mm 0.07 in1.8 mm
01:55 PM 42.4°F5.8°C 38.8°F3.8°C 87% 5.0 mph E8.0 kmh E 13.0 mph20.9 kmh 29.98 in1015.2 mb 0.00 in0.0 mm 0.00 in0.0 mm 0.07 in1.8 mm
02:00 PM 42.7°F5.9°C 39.1°F3.9°C 87% 3.0 mph ESE4.8 kmh ESE 13.0 mph20.9 kmh 29.97 in1014.9 mb 0.00 in0.0 mm 0.00 in0.0 mm 0.07 in1.8 mm
02:05 PM 42.9°F6.1°C 39.3°F4.1°C 87% 6.0 mph ESE9.7 kmh ESE 7.0 mph11.3 kmh 29.97 in1014.9 mb 0.00 in0.0 mm 0.00 in0.0 mm 0.07 in1.8 mm
02:10 PM 43.2°F6.2°C 39.6°F4.2°C 87% 2.0 mph E3.2 kmh E 11.0 mph17.7 kmh 29.97 in1014.9 mb 0.00 in0.0 mm 0.00 in0.0 mm 0.07 in1.8 mm
02:15 PM 43.4°F6.3°C 39.8°F4.3°C 87% 4.0 mph ESE6.4 kmh ESE 11.0 mph17.7 kmh 29.97 in1014.9 mb 0.00 in0.0 mm 0.00 in0.0 mm 0.07 in1.8 mm
02:20 PM 43.6°F6.4°C 39.7°F4.3°C 86% 4.0 mph ESE6.4 kmh ESE 7.0 mph11.3 kmh 29.96 in1014.6 mb 0.00 in0.0 mm 0.00 in0.0 mm 0.07 in1.8 mm
02:25 PM 43.6°F6.4°C 39.7°F4.3°C 86% 3.0 mph ESE4.8 kmh ESE 8.0 mph12.9 kmh 29.95 in1014.2 mb 0.00 in0.0 mm 0.00 in0.0 mm 0.07 in1.8 mm
02:30 PM 43.7°F6.5°C 39.8°F4.3°C 86% 1.0 mph ESE1.6 kmh ESE 11.0 mph17.7 kmh 29.96 in1014.6 mb 0.00 in0.0 mm 0.00 in0.0 mm 0.07 in1.8 mm
02:35 PM 43.9°F6.6°C 40.0°F4.4°C 86% 5.0 mph ESE8.0 kmh ESE 11.0 mph17.7 kmh 29.95 in1014.2 mb 0.00 in0.0 mm 0.00 in0.0 mm 0.07 in1.8 mm
02:40 PM 44.0°F6.7°C 39.8°F4.3°C 85% 4.0 mph SE6.4 kmh SE 11.0 mph17.7 kmh 29.95 in1014.2 mb 0.00 in0.0 mm 0.00 in0.0 mm 0.07 in1.8 mm
02:45 PM 44.2°F6.8°C 40.0°F4.4°C 85% 5.0 mph E8.0 kmh E 11.0 mph17.7 kmh 29.95 in1014.2 mb 0.00 in0.0 mm 0.00 in0.0 mm 0.07 in1.8 mm
02:50 PM 44.5°F6.9°C 40.3°F4.6°C 85% 6.0 mph ESE9.7 kmh ESE 8.0 mph12.9 kmh 29.95 in1014.2 mb 0.00 in0.0 mm 0.00 in0.0 mm 0.07 in1.8 mm
02:55 PM 44.6°F7.0°C 40.4°F4.7°C 85% 4.0 mph SE6.4 kmh SE 8.0 mph12.9 kmh 29.95 in1014.2 mb 0.00 in0.0 mm 0.00 in0.0 mm 0.07 in1.8 mm
03:00 PM 44.7°F7.1°C 40.2°F4.6°C 84% 4.0 mph SE6.4 kmh SE 11.0 mph17.7 kmh 29.94 in1013.9 mb 0.00 in0.0 mm 0.00 in0.0 mm 0.07 in1.8 mm
03:05 PM 44.7°F7.1°C 39.9°F4.4°C 83% 4.0 mph SE6.4 kmh SE 10.0 mph16.1 kmh 29.93 in1013.5 mb 0.00 in0.0 mm 0.00 in0.0 mm 0.07 in1.8 mm
03:10 PM 44.7°F7.1°C 39.9°F4.4°C 83% 6.0 mph ESE9.7 kmh ESE 10.0 mph16.1 kmh 29.93 in1013.5 mb 0.00 in0.0 mm 0.00 in0.0 mm 0.07 in1.8 mm
03:15 PM 44.7°F7.1°C 39.9°F4.4°C 83% 4.0 mph SE6.4 kmh SE 10.0 mph16.1 kmh 29.93 in1013.5 mb 0.00 in0.0 mm 0.00 in0.0 mm 0.07 in1.8 mm
03:20 PM 44.8°F7.1°C 39.7°F4.3°C 82% 2.0 mph SE3.2 kmh SE 6.0 mph9.7 kmh 29.93 in1013.5 mb 0.00 in0.0 mm 0.00 in0.0 mm 0.07 in1.8 mm
03:25 PM 44.8°F7.1°C 39.7°F4.3°C 82% 10.0 mph SE16.1 kmh SE 10.0 mph16.1 kmh 29.94 in1013.9 mb 0.00 in0.0 mm 0.00 in0.0 mm 0.07 in1.8 mm
03:30 PM 45.0°F7.2°C 39.9°F4.4°C 82% 4.0 mph SE6.4 kmh SE 10.0 mph16.1 kmh 29.93 in1013.5 mb 0.00 in0.0 mm 0.00 in0.0 mm 0.07 in1.8 mm
03:35 PM 45.2°F7.3°C 39.7°F4.3°C 81% 4.0 mph ESE6.4 kmh ESE 11.0 mph17.7 kmh 29.92 in1013.2 mb 0.00 in0.0 mm 0.00 in0.0 mm 0.07 in1.8 mm
03:40 PM 45.4°F7.4°C 39.9°F4.4°C 81% 7.0 mph SE11.3 kmh SE 11.0 mph17.7 kmh 29.92 in1013.2 mb 0.00 in0.0 mm 0.00 in0.0 mm 0.07 in1.8 mm
03:45 PM 45.6°F7.6°C 39.8°F4.3°C 80% 2.0 mph SE3.2 kmh SE 13.0 mph20.9 kmh 29.87 in1011.5 mb 0.00 in0.0 mm 0.00 in0.0 mm 0.07 in1.8 mm
03:50 PM 45.7°F7.6°C 39.6°F4.2°C 79% 4.0 mph ESE6.4 kmh ESE 11.0 mph17.7 kmh 29.88 in1011.9 mb 0.00 in0.0 mm 0.00 in0.0 mm 0.07 in1.8 mm
03:55 PM 45.8°F7.7°C 39.7°F4.3°C 79% 4.0 mph SE6.4 kmh SE 11.0 mph17.7 kmh 29.87 in1011.5 mb 0.00 in0.0 mm 0.00 in0.0 mm 0.07 in1.8 mm
04:00 PM 45.8°F7.7°C 39.7°F4.3°C 79% Calm Calm 11.0 mph17.7 kmh 29.87 in1011.5 mb 0.00 in0.0 mm 0.00 in0.0 mm 0.07 in1.8 mm
04:05 PM 45.7°F7.6°C 39.6°F4.2°C 79% 3.0 mph SE4.8 kmh SE 10.0 mph16.1 kmh 29.87 in1011.5 mb 0.00 in0.0 mm 0.00 in0.0 mm 0.07 in1.8 mm
04:10 PM 45.7°F7.6°C 39.6°F4.2°C 79% 5.0 mph SE8.0 kmh SE 10.0 mph16.1 kmh 29.87 in1011.5 mb 0.00 in0.0 mm 0.00 in0.0 mm 0.07 in1.8 mm
04:15 PM 45.8°F7.7°C 39.7°F4.3°C 79% 8.0 mph E12.9 kmh E 11.0 mph17.7 kmh 29.86 in1011.2 mb 0.00 in0.0 mm 0.00 in0.0 mm 0.07 in1.8 mm
04:20 PM 45.9°F7.7°C 39.8°F4.3°C 79% 5.0 mph E8.0 kmh E 12.0 mph19.3 kmh 29.86 in1011.2 mb 0.00 in0.0 mm 0.00 in0.0 mm 0.07 in1.8 mm
04:25 PM 46.1°F7.8°C 39.6°F4.2°C 78% 3.0 mph SE4.8 kmh SE 16.0 mph25.7 kmh 29.86 in1011.2 mb 0.00 in0.0 mm 0.00 in0.0 mm 0.07 in1.8 mm
04:30 PM 46.2°F7.9°C 39.7°F4.3°C 78% 5.0 mph ESE8.0 kmh ESE 16.0 mph25.7 kmh 29.86 in1011.2 mb 0.00 in0.0 mm 0.00 in0.0 mm 0.07 in1.8 mm
04:35 PM 46.2°F7.9°C 39.7°F4.3°C 78% 3.0 mph SE4.8 kmh SE 9.0 mph14.5 kmh 29.86 in1011.2 mb 0.00 in0.0 mm 0.00 in0.0 mm 0.07 in1.8 mm
04:40 PM 46.1°F7.8°C 39.6°F4.2°C 78% 6.0 mph E9.7 kmh E 9.0 mph14.5 kmh 29.86 in1011.2 mb 0.00 in0.0 mm 0.00 in0.0 mm 0.07 in1.8 mm
04:45 PM 46.1°F7.8°C 39.6°F4.2°C 78% 5.0 mph SE8.0 kmh SE 14.0 mph22.5 kmh 29.86 in1011.2 mb 0.00 in0.0 mm 0.00 in0.0 mm 0.07 in1.8 mm
04:50 PM 46.2°F7.9°C 39.4°F4.1°C 77% 8.0 mph SE12.9 kmh SE 12.0 mph19.3 kmh 29.86 in1011.2 mb 0.00 in0.0 mm 0.00 in0.0 mm 0.07 in1.8 mm
04:55 PM 46.2°F7.9°C 39.4°F4.1°C 77% 5.0 mph ESE8.0 kmh ESE 12.0 mph19.3 kmh 29.86 in1011.2 mb 0.00 in0.0 mm 0.00 in0.0 mm 0.07 in1.8 mm
05:00 PM 46.3°F7.9°C 39.2°F4.0°C 76% 5.0 mph SE8.0 kmh SE 12.0 mph19.3 kmh 29.86 in1011.2 mb 0.00 in0.0 mm 0.00 in0.0 mm 0.07 in1.8 mm
05:05 PM 46.4°F8.0°C 39.3°F4.1°C 76% 9.0 mph SE14.5 kmh SE 12.0 mph19.3 kmh 29.86 in1011.2 mb 0.00 in0.0 mm 0.00 in0.0 mm 0.07 in1.8 mm
05:10 PM 46.4°F8.0°C 39.3°F4.1°C 76% 1.0 mph SE1.6 kmh SE 12.0 mph19.3 kmh 29.85 in1010.8 mb 0.00 in0.0 mm 0.00 in0.0 mm 0.07 in1.8 mm
05:15 PM 46.4°F8.0°C 39.3°F4.1°C 76% 7.0 mph ESE11.3 kmh ESE 12.0 mph19.3 kmh 29.85 in1010.8 mb 0.00 in0.0 mm 0.00 in0.0 mm 0.07 in1.8 mm
05:20 PM 46.2°F7.9°C 39.4°F4.1°C 77% 6.0 mph ESE9.7 kmh ESE 9.0 mph14.5 kmh 29.85 in1010.8 mb 0.00 in0.0 mm 0.00 in0.0 mm 0.07 in1.8 mm
05:25 PM 46.1°F7.8°C 39.3°F4.1°C 77% 7.0 mph SE11.3 kmh SE 12.0 mph19.3 kmh 29.84 in1010.5 mb 0.00 in0.0 mm 0.00 in0.0 mm 0.07 in1.8 mm
05:30 PM 46.1°F7.8°C 39.6°F4.2°C 78% 6.0 mph ESE9.7 kmh ESE 12.0 mph19.3 kmh 29.84 in1010.5 mb 0.00 in0.0 mm 0.00 in0.0 mm 0.07 in1.8 mm
05:35 PM 46.0°F7.8°C 39.9°F4.4°C 79% 2.0 mph SE3.2 kmh SE 13.0 mph20.9 kmh 29.84 in1010.5 mb 0.00 in0.0 mm 0.00 in0.0 mm 0.07 in1.8 mm
05:40 PM 45.8°F7.7°C 39.7°F4.3°C 79% 3.0 mph SE4.8 kmh SE 13.0 mph20.9 kmh 29.84 in1010.5 mb 0.00 in0.0 mm 0.00 in0.0 mm 0.07 in1.8 mm
05:45 PM 45.7°F7.6°C 39.9°F4.4°C 80% 3.0 mph ESE4.8 kmh ESE 13.0 mph20.9 kmh 29.83 in1010.2 mb 0.00 in0.0 mm 0.00 in0.0 mm 0.07 in1.8 mm
05:50 PM 45.7°F7.6°C 39.9°F4.4°C 80% 13.0 mph S20.9 kmh S 16.0 mph25.7 kmh 29.83 in1010.2 mb 0.00 in0.0 mm 0.00 in0.0 mm 0.07 in1.8 mm
05:55 PM 45.6°F7.6°C 39.8°F4.3°C 80% 3.0 mph S4.8 kmh S 16.0 mph25.7 kmh 29.83 in1010.2 mb 0.00 in0.0 mm 0.00 in0.0 mm 0.07 in1.8 mm
06:00 PM 45.5°F7.5°C 39.7°F4.3°C 80% 9.0 mph ESE14.5 kmh ESE 16.0 mph25.7 kmh 29.83 in1010.2 mb 0.00 in0.0 mm 0.00 in0.0 mm 0.07 in1.8 mm
06:05 PM 45.5°F7.5°C 39.4°F4.1°C 79% 5.0 mph SE8.0 kmh SE 14.0 mph22.5 kmh 29.83 in1010.2 mb 0.00 in0.0 mm 0.00 in0.0 mm 0.07 in1.8 mm
06:10 PM 45.6°F7.6°C 39.2°F4.0°C 78% 10.0 mph SSE16.1 kmh SSE 14.0 mph22.5 kmh 29.83 in1010.2 mb 0.00 in0.0 mm 0.00 in0.0 mm 0.07 in1.8 mm
06:15 PM 45.7°F7.6°C 38.9°F3.8°C 77% 4.0 mph SE6.4 kmh SE 14.0 mph22.5 kmh 29.83 in1010.2 mb 0.00 in0.0 mm 0.00 in0.0 mm 0.07 in1.8 mm
06:20 PM 45.8°F7.7°C 39.0°F3.9°C 77% 9.0 mph SE14.5 kmh SE 14.0 mph22.5 kmh 29.83 in1010.2 mb 0.00 in0.0 mm 0.00 in0.0 mm 0.07 in1.8 mm
06:25 PM 45.8°F7.7°C 39.0°F3.9°C 77% 3.0 mph E4.8 kmh E 14.0 mph22.5 kmh 29.83 in1010.2 mb 0.00 in0.0 mm 0.00 in0.0 mm 0.07 in1.8 mm
06:30 PM 45.7°F7.6°C 38.9°F3.8°C 77% 2.0 mph E3.2 kmh E 14.0 mph22.5 kmh 29.83 in1010.2 mb 0.00 in0.0 mm 0.00 in0.0 mm 0.07 in1.8 mm
06:40 PM 45.5°F7.5°C 38.7°F3.7°C 77% 2.0 mph ESE3.2 kmh ESE 12.0 mph19.3 kmh 29.83 in1010.2 mb 0.00 in0.0 mm 0.00 in0.0 mm 0.07 in1.8 mm
06:45 PM 45.3°F7.4°C 38.9°F3.8°C 78% 3.0 mph ESE4.8 kmh ESE 12.0 mph19.3 kmh 29.84 in1010.5 mb 0.00 in0.0 mm 0.00 in0.0 mm 0.07 in1.8 mm
06:50 PM 45.2°F7.3°C 38.8°F3.8°C 78% 4.0 mph SE6.4 kmh SE 8.0 mph12.9 kmh 29.84 in1010.5 mb 0.00 in0.0 mm 0.00 in0.0 mm 0.07 in1.8 mm
06:55 PM 45.1°F7.3°C 38.7°F3.7°C 78% 2.0 mph E3.2 kmh E 11.0 mph17.7 kmh 29.83 in1010.2 mb 0.00 in0.0 mm 0.00 in0.0 mm 0.07 in1.8 mm
07:00 PM 45.0°F7.2°C 38.6°F3.7°C 78% 6.0 mph ESE9.7 kmh ESE 13.0 mph20.9 kmh 29.84 in1010.5 mb 0.00 in0.0 mm 0.00 in0.0 mm 0.07 in1.8 mm
07:05 PM 45.0°F7.2°C 38.6°F3.7°C 78% 6.0 mph SE9.7 kmh SE 11.0 mph17.7 kmh 29.84 in1010.5 mb 0.00 in0.0 mm 0.00 in0.0 mm 0.07 in1.8 mm
07:10 PM 45.0°F7.2°C 38.6°F3.7°C 78% 7.0 mph SE11.3 kmh SE 11.0 mph17.7 kmh 29.84 in1010.5 mb 0.00 in0.0 mm 0.00 in0.0 mm 0.07 in1.8 mm
07:15 PM 44.9°F7.2°C 38.5°F3.6°C 78% 7.0 mph SE11.3 kmh SE 12.0 mph19.3 kmh 29.85 in1010.8 mb 0.00 in0.0 mm 0.00 in0.0 mm 0.07 in1.8 mm
07:20 PM 44.9°F7.2°C 38.5°F3.6°C 78% 2.0 mph SE3.2 kmh SE 8.0 mph12.9 kmh 29.85 in1010.8 mb 0.00 in0.0 mm 0.00 in0.0 mm 0.07 in1.8 mm
07:25 PM 44.9°F7.2°C 38.5°F3.6°C 78% 5.0 mph SE8.0 kmh SE 8.0 mph12.9 kmh 29.85 in1010.8 mb 0.00 in0.0 mm 0.00 in0.0 mm 0.07 in1.8 mm
07:30 PM 44.9°F7.2°C 38.5°F3.6°C 78% 2.0 mph SE3.2 kmh SE 8.0 mph12.9 kmh 29.85 in1010.8 mb 0.00 in0.0 mm 0.00 in0.0 mm 0.07 in1.8 mm
07:35 PM 44.9°F7.2°C 38.5°F3.6°C 78% 1.0 mph SE1.6 kmh SE 5.0 mph8.0 kmh 29.85 in1010.8 mb 0.00 in0.0 mm 0.00 in0.0 mm 0.07 in1.8 mm
07:40 PM 44.8°F7.1°C 38.4°F3.6°C 78% Calm Calm 5.0 mph8.0 kmh 29.85 in1010.8 mb 0.00 in0.0 mm 0.00 in0.0 mm 0.07 in1.8 mm
07:45 PM 44.7°F7.1°C 38.3°F3.5°C 78% 4.0 mph ESE6.4 kmh ESE 5.0 mph8.0 kmh 29.85 in1010.8 mb 0.00 in0.0 mm 0.00 in0.0 mm 0.07 in1.8 mm
07:50 PM 44.7°F7.1°C 38.3°F3.5°C 78% 1.0 mph E1.6 kmh E 6.0 mph9.7 kmh 29.85 in1010.8 mb 0.00 in0.0 mm 0.00 in0.0 mm 0.07 in1.8 mm
07:55 PM 44.6°F7.0°C 38.5°F3.6°C 79% Calm Calm 6.0 mph9.7 kmh 29.85 in1010.8 mb 0.00 in0.0 mm 0.00 in0.0 mm 0.07 in1.8 mm
08:00 PM 44.5°F6.9°C 38.4°F3.6°C 79% Calm Calm 6.0 mph9.7 kmh 29.86 in1011.2 mb 0.00 in0.0 mm 0.00 in0.0 mm 0.07 in1.8 mm
08:05 PM 44.3°F6.8°C 38.2°F3.4°C 79% Calm Calm -- 29.87 in1011.5 mb 0.00 in0.0 mm 0.00 in0.0 mm 0.07 in1.8 mm
08:10 PM 44.2°F6.8°C 38.1°F3.4°C 79% Calm Calm 2.0 mph3.2 kmh 29.87 in1011.5 mb 0.00 in0.0 mm 0.00 in0.0 mm 0.07 in1.8 mm
08:15 PM 44.1°F6.7°C 38.3°F3.5°C 80% 1.0 mph ESE1.6 kmh ESE 3.0 mph4.8 kmh 29.88 in1011.9 mb 0.00 in0.0 mm 0.00 in0.0 mm 0.07 in1.8 mm
08:20 PM 44.0°F6.7°C 38.2°F3.4°C 80% 1.0 mph SE1.6 kmh SE 4.0 mph6.4 kmh 29.88 in1011.9 mb 0.00 in0.0 mm 0.00 in0.0 mm 0.07 in1.8 mm
08:25 PM 44.0°F6.7°C 38.2°F3.4°C 80% 1.0 mph W1.6 kmh W 4.0 mph6.4 kmh 29.89 in1012.2 mb 0.00 in0.0 mm 0.00 in0.0 mm 0.07 in1.8 mm
08:30 PM 44.0°F6.7°C 38.2°F3.4°C 80% Calm Calm 4.0 mph6.4 kmh 29.90 in1012.5 mb 0.00 in0.0 mm 0.00 in0.0 mm 0.07 in1.8 mm
08:35 PM 44.0°F6.7°C 38.6°F3.7°C 81% 10.0 mph W16.1 kmh W 12.0 mph19.3 kmh 29.91 in1012.9 mb 0.00 in0.0 mm 0.00 in0.0 mm 0.07 in1.8 mm
08:40 PM 45.1°F7.3°C 40.3°F4.6°C 83% 7.0 mph SW11.3 kmh SW 16.0 mph25.7 kmh 29.92 in1013.2 mb 0.01 in0.3 mm 0.12 in3.0 mm 0.08 in2.0 mm
08:45 PM 46.3°F7.9°C 41.7°F5.4°C 84% 9.0 mph NW14.5 kmh NW 27.0 mph43.5 kmh 29.90 in1012.5 mb 0.02 in0.5 mm 0.12 in3.0 mm 0.09 in2.3 mm
08:50 PM 46.3°F7.9°C 41.4°F5.2°C 83% 16.0 mph NW25.7 kmh NW 26.0 mph41.8 kmh 29.89 in1012.2 mb 0.04 in1.0 mm 0.24 in6.1 mm 0.11 in2.8 mm
08:55 PM 46.0°F7.8°C 41.4°F5.2°C 84% 11.0 mph W17.7 kmh W 29.0 mph46.7 kmh 29.90 in1012.5 mb 0.04 in1.0 mm 0.00 in0.0 mm 0.11 in2.8 mm
09:00 PM 45.8°F7.7°C 41.6°F5.3°C 85% 8.0 mph WNW12.9 kmh WNW 29.0 mph46.7 kmh 29.89 in1012.2 mb 0.04 in1.0 mm 0.00 in0.0 mm 0.11 in2.8 mm
09:05 PM 45.8°F7.7°C 41.6°F5.3°C 85% 9.0 mph W14.5 kmh W 13.0 mph20.9 kmh 29.89 in1012.2 mb 0.04 in1.0 mm 0.00 in0.0 mm 0.11 in2.8 mm
09:10 PM 45.8°F7.7°C 41.6°F5.3°C 85% 13.0 mph WSW20.9 kmh WSW 13.0 mph20.9 kmh 29.89 in1012.2 mb 0.04 in1.0 mm 0.00 in0.0 mm 0.11 in2.8 mm
09:15 PM 45.9°F7.7°C 41.7°F5.4°C 85% 9.0 mph WNW14.5 kmh WNW 13.0 mph20.9 kmh 29.89 in1012.2 mb 0.04 in1.0 mm 0.00 in0.0 mm 0.11 in2.8 mm
09:20 PM 45.8°F7.7°C 41.6°F5.3°C 85% 7.0 mph WNW11.3 kmh WNW 12.0 mph19.3 kmh 29.90 in1012.5 mb 0.04 in1.0 mm 0.00 in0.0 mm 0.11 in2.8 mm
09:25 PM 45.6°F7.6°C 41.1°F5.1°C 84% 2.0 mph WNW3.2 kmh WNW 12.0 mph19.3 kmh 29.90 in1012.5 mb 0.04 in1.0 mm 0.00 in0.0 mm 0.11 in2.8 mm
09:30 PM 45.3°F7.4°C 40.8°F4.9°C 84% 3.0 mph W4.8 kmh W 12.0 mph19.3 kmh 29.91 in1012.9 mb 0.04 in1.0 mm 0.00 in0.0 mm 0.11 in2.8 mm
09:35 PM 45.0°F7.2°C 40.5°F4.7°C 84% 7.0 mph NW11.3 kmh NW 9.0 mph14.5 kmh 29.92 in1013.2 mb 0.04 in1.0 mm 0.00 in0.0 mm 0.11 in2.8 mm
09:40 PM 44.7°F7.1°C 40.5°F4.7°C 85% 7.0 mph W11.3 kmh W 9.0 mph14.5 kmh 29.92 in1013.2 mb 0.04 in1.0 mm 0.00 in0.0 mm 0.11 in2.8 mm
09:45 PM 44.4°F6.9°C 40.2°F4.6°C 85% 4.0 mph W6.4 kmh W 9.0 mph14.5 kmh 29.92 in1013.2 mb 0.04 in1.0 mm 0.00 in0.0 mm 0.11 in2.8 mm
09:50 PM 44.2°F6.8°C 40.0°F4.4°C 85% 1.0 mph W1.6 kmh W 4.0 mph6.4 kmh 29.92 in1013.2 mb 0.02 in0.5 mm 0.00 in0.0 mm 0.11 in2.8 mm
09:55 PM 44.0°F6.7°C 39.8°F4.3°C 85% 2.0 mph WNW3.2 kmh WNW 4.0 mph6.4 kmh 29.92 in1013.2 mb 0.02 in0.5 mm 0.00 in0.0 mm 0.11 in2.8 mm
10:00 PM 43.7°F6.5°C 39.8°F4.3°C 86% 2.0 mph WNW3.2 kmh WNW 6.0 mph9.7 kmh 29.92 in1013.2 mb 0.02 in0.5 mm 0.00 in0.0 mm 0.11 in2.8 mm
10:05 PM 43.5°F6.4°C 39.6°F4.2°C 86% 1.0 mph W1.6 kmh W 6.0 mph9.7 kmh 29.93 in1013.5 mb 0.00 in0.0 mm 0.00 in0.0 mm 0.11 in2.8 mm
10:10 PM 43.3°F6.3°C 39.4°F4.1°C 86% 2.0 mph W3.2 kmh W 6.0 mph9.7 kmh 29.93 in1013.5 mb 0.00 in0.0 mm 0.00 in0.0 mm 0.11 in2.8 mm
10:15 PM 43.1°F6.2°C 39.2°F4.0°C 86% 2.0 mph NW3.2 kmh NW 6.0 mph9.7 kmh 29.93 in1013.5 mb 0.00 in0.0 mm 0.00 in0.0 mm 0.11 in2.8 mm
10:20 PM 43.0°F6.1°C 39.1°F3.9°C 86% 2.0 mph NW3.2 kmh NW 5.0 mph8.0 kmh 29.93 in1013.5 mb 0.00 in0.0 mm 0.00 in0.0 mm 0.11 in2.8 mm
10:25 PM 42.8°F6.0°C 39.2°F4.0°C 87% 3.0 mph N4.8 kmh N 5.0 mph8.0 kmh 29.94 in1013.9 mb 0.00 in0.0 mm 0.00 in0.0 mm 0.11 in2.8 mm
10:30 PM 42.6°F5.9°C 38.7°F3.7°C 86% Calm Calm 5.0 mph8.0 kmh 29.94 in1013.9 mb 0.00 in0.0 mm 0.00 in0.0 mm 0.11 in2.8 mm
10:35 PM 42.4°F5.8°C 38.8°F3.8°C 87% 2.0 mph NW3.2 kmh NW 3.0 mph4.8 kmh 29.94 in1013.9 mb 0.00 in0.0 mm 0.00 in0.0 mm 0.11 in2.8 mm
10:40 PM 42.1°F5.6°C 38.5°F3.6°C 87% 2.0 mph NW3.2 kmh NW 5.0 mph8.0 kmh 29.95 in1014.2 mb 0.00 in0.0 mm 0.00 in0.0 mm 0.11 in2.8 mm
11:10 PM 41.3°F5.2°C 38.0°F3.3°C 88% Calm Calm 2.0 mph3.2 kmh 29.97 in1014.9 mb 0.00 in0.0 mm 0.00 in0.0 mm 0.11 in2.8 mm
11:15 PM 41.2°F5.1°C 37.9°F3.3°C 88% Calm Calm 3.0 mph4.8 kmh 29.97 in1014.9 mb 0.00 in0.0 mm 0.00 in0.0 mm 0.11 in2.8 mm
11:20 PM 40.9°F4.9°C 37.6°F3.1°C 88% 1.0 mph E1.6 kmh E 2.0 mph3.2 kmh 29.97 in1014.9 mb 0.00 in0.0 mm 0.00 in0.0 mm 0.11 in2.8 mm
11:25 PM 40.5°F4.7°C 37.2°F2.9°C 88% 1.0 mph E1.6 kmh E 2.0 mph3.2 kmh 29.98 in1015.2 mb 0.00 in0.0 mm 0.00 in0.0 mm 0.11 in2.8 mm
11:30 PM 40.2°F4.6°C 37.2°F2.9°C 89% Calm Calm 2.0 mph3.2 kmh 29.98 in1015.2 mb 0.00 in0.0 mm 0.00 in0.0 mm 0.11 in2.8 mm
11:35 PM 40.1°F4.5°C 37.1°F2.8°C 89% Calm Calm 2.0 mph3.2 kmh 29.98 in1015.2 mb 0.00 in0.0 mm 0.00 in0.0 mm 0.11 in2.8 mm
11:40 PM 39.9°F4.4°C 36.9°F2.7°C 89% 1.0 mph E1.6 kmh E 2.0 mph3.2 kmh 29.99 in1015.6 mb 0.00 in0.0 mm 0.00 in0.0 mm 0.11 in2.8 mm
11:45 PM 39.7°F4.3°C 36.7°F2.6°C 89% Calm Calm 2.0 mph3.2 kmh 29.99 in1015.6 mb 0.00 in0.0 mm 0.00 in0.0 mm 0.11 in2.8 mm
11:50 PM 39.5°F4.2°C 36.5°F2.5°C 89% Calm Calm 1.0 mph1.6 kmh 29.99 in1015.6 mb 0.00 in0.0 mm 0.00 in0.0 mm 0.11 in2.8 mm
11:55 PM 39.2°F4.0°C 36.0°F2.2°C 88% Calm Calm 2.0 mph3.2 kmh 30.00 in1015.9 mb 0.00 in0.0 mm 0.00 in0.0 mm 0.11 in2.8 mm